Time;durP1;ratioP1;P1;durP2;ratioP2;P2;SDS_P1;SDS_P2;PMS_P1;PMS_P2;Temp;Humidity;BMP_temperature;BMP_pressure;BME280_temperature;BME280_humidity;BME280_pressure;Samples;Min_cycle;Max_cycle;Signal;HPM_P1;HPM_P2
2022/08/07 00:01:20;;;;;;;5.30;3.42;;;28.20;55.20;;;;;;5101704;28;20020;-79
2022/08/07 00:03:46;;;;;;;4.13;3.30;;;28.30;54.90;;;;;;5093698;28;20028;-80
2022/08/07 00:06:12;;;;;;;4.80;3.60;;;28.30;54.70;;;;;;5092343;28;20092;-76
2022/08/07 00:08:38;;;;;;;4.00;3.15;;;28.30;55.00;;;;;;5107555;28;20027;-79
2022/08/07 00:11:05;;;;;;;4.55;3.30;;;28.40;54.90;;;;;;5102689;28;20427;-78
2022/08/07 00:13:31;;;;;;;5.55;3.17;;;28.50;54.70;;;;;;5114441;28;20374;-78
2022/08/07 00:15:57;;;;;;;6.82;3.65;;;28.60;54.90;;;;;;5110350;28;20031;-81
2022/08/07 00:18:26;;;;;;;4.95;3.50;;;28.60;54.70;;;;;;5106497;28;20024;-81
2022/08/07 00:21:01;;;;;;;4.53;3.30;;;28.50;54.70;;;;;;5083768;28;20059;-76
2022/08/07 00:23:27;;;;;;;4.15;3.45;;;28.70;54.60;;;;;;5099072;28;20024;-81
2022/08/07 00:25:53;;;;;;;4.97;3.50;;;28.60;54.60;;;;;;5099107;28;20025;-82
2022/08/07 00:28:20;;;;;;;4.88;3.47;;;28.60;54.40;;;;;;5114728;28;20016;-83
2022/08/07 00:30:46;;;;;;;5.18;3.30;;;28.70;54.40;;;;;;5107999;28;20391;-81
2022/08/07 00:33:12;;;;;;;4.30;3.30;;;28.70;54.40;;;;;;5093477;28;20532;-77
2022/08/07 00:35:38;;;;;;;4.88;3.70;;;28.60;54.40;;;;;;5103972;28;20028;-76
2022/08/07 00:38:04;;;;;;;4.57;3.50;;;28.70;55.10;;;;;;5112148;28;20028;-77
2022/08/07 00:40:31;;;;;;;5.40;3.30;;;28.90;54.60;;;;;;5106247;28;20068;-78
2022/08/07 00:42:56;;;;;;;4.85;3.58;;;28.90;54.40;;;;;;5093929;28;20078;-76
2022/08/07 00:45:22;;;;;;;6.07;3.45;;;29.00;54.10;;;;;;5077391;28;20020;-79
2022/08/07 00:47:49;;;;;;;4.30;3.40;;;28.90;54.30;;;;;;5108168;28;20075;-77
2022/08/07 00:50:15;;;;;;;5.07;3.58;;;28.70;54.60;;;;;;5084382;28;20091;-81
2022/08/07 00:52:41;;;;;;;6.20;3.42;;;28.80;54.70;;;;;;5112854;28;20420;-79
2022/08/07 00:55:08;;;;;;;4.28;3.50;;;28.60;54.40;;;;;;5113301;28;20032;-77
2022/08/07 00:57:34;;;;;;;4.53;3.60;;;28.50;54.90;;;;;;5095765;28;20055;-79
2022/08/07 01:00:01;;;;;;;4.07;3.45;;;28.80;55.00;;;;;;5106856;28;20451;-76
2022/08/07 01:02:27;;;;;;;4.10;3.45;;;28.90;54.30;;;;;;5098425;28;20023;-86
2022/08/07 01:04:52;;;;;;;4.90;3.75;;;28.80;54.40;;;;;;5092797;28;20035;-76
2022/08/07 01:07:20;;;;;;;4.72;3.70;;;28.80;54.30;;;;;;5102276;28;20098;-80
2022/08/07 01:09:46;;;;;;;4.38;3.58;;;28.90;54.20;;;;;;5102050;28;20042;-80
2022/08/07 01:12:14;;;;;;;6.13;3.88;;;29.00;54.30;;;;;;5092941;28;20032;-78
2022/08/07 01:14:40;;;;;;;5.40;3.70;;;29.00;53.90;;;;;;5093031;28;20561;-76
2022/08/07 01:17:08;;;;;;;4.93;3.90;;;29.00;54.10;;;;;;5107844;28;20076;-81
2022/08/07 01:19:35;;;;;;;4.73;3.63;;;28.90;54.10;;;;;;4758440;28;10000629;-76
2022/08/07 01:22:02;;;;;;;4.43;3.78;;;28.80;54.40;;;;;;5091221;28;20099;-78
2022/08/07 01:24:29;;;;;;;5.00;3.90;;;28.70;54.70;;;;;;5085496;28;20458;-76
2022/08/07 01:26:55;;;;;;;4.63;3.88;;;28.70;54.60;;;;;;5081288;28;20109;-82
2022/08/07 01:29:26;;;;;;;4.85;4.13;;;28.70;54.40;;;;;;5093234;28;20024;-79
2022/08/07 01:31:52;;;;;;;4.85;4.10;;;28.60;54.50;;;;;;5111024;28;20043;-76
2022/08/07 01:34:19;;;;;;;4.90;4.10;;;28.60;54.60;;;;;;5112300;28;20138;-76
2022/08/07 01:36:46;;;;;;;5.20;4.05;;;28.70;54.50;;;;;;5093016;28;20390;-76
2022/08/07 01:39:12;;;;;;;6.00;4.07;;;28.80;54.50;;;;;;5077354;28;20505;-76
2022/08/07 01:41:38;;;;;;;6.10;4.28;;;28.90;54.50;;;;;;5100429;28;20028;-76
2022/08/07 01:44:04;;;;;;;4.63;4.07;;;29.00;54.60;;;;;;5096257;28;20043;-75
2022/08/07 01:46:31;;;;;;;4.90;4.03;;;28.50;54.90;;;;;;5096259;28;20020;-76
2022/08/07 01:48:56;;;;;;;4.90;3.90;;;28.10;55.80;;;;;;5093625;28;20398;-76
2022/08/07 01:51:24;;;;;;;5.25;4.00;;;28.20;55.20;;;;;;5096062;28;20036;-79
2022/08/07 01:53:54;;;;;;;7.07;4.30;;;28.60;54.90;;;;;;5097159;28;20027;-79
2022/08/07 01:56:26;;;;;;;4.78;3.88;;;28.80;54.70;;;;;;5109974;28;20019;-79
2022/08/07 01:58:59;;;;;;;5.15;3.53;;;28.90;54.30;;;;;;5098888;28;20375;-76
2022/08/07 02:01:28;;;;;;;5.63;4.07;;;28.80;54.30;;;;;;5111183;28;20412;-76
2022/08/07 02:04:16;;;;;;;6.68;4.30;;;28.90;54.40;;;;;;5095962;28;20024;-77
2022/08/07 02:06:43;;;;;;;5.05;4.05;;;28.90;54.50;;;;;;5096747;28;20028;-79
2022/08/07 02:09:11;;;;;;;5.25;4.25;;;28.80;54.60;;;;;;5096399;28;20032;-77
2022/08/07 02:11:42;;;;;;;6.70;4.43;;;28.60;54.70;;;;;;5114855;28;20414;-81
2022/08/07 02:14:09;;;;;;;5.40;4.32;;;28.50;54.70;;;;;;5096952;28;20028;-76
2022/08/07 02:16:37;;;;;;;6.75;4.75;;;28.50;55.20;;;;;;5114649;28;20027;-76
2022/08/07 02:19:05;;;;;;;5.47;4.70;;;28.60;55.10;;;;;;5116516;28;20024;-76
2022/08/07 02:21:33;;;;;;;8.20;4.07;;;28.60;54.90;;;;;;5113447;28;20069;-76
2022/08/07 02:23:59;;;;;;;5.65;4.63;;;28.60;54.90;;;;;;5110546;28;20023;-76
2022/08/07 02:26:26;;;;;;;5.50;4.68;;;28.50;55.20;;;;;;5114889;28;20023;-78
2022/08/07 02:28:53;;;;;;;5.88;4.50;;;28.60;55.20;;;;;;5101980;28;20016;-76
2022/08/07 02:31:22;;;;;;;6.10;4.60;;;28.60;54.80;;;;;;5080086;28;20043;-75
2022/08/07 02:33:49;;;;;;;5.78;4.68;;;28.50;55.10;;;;;;5078847;28;20055;-78
2022/08/07 02:36:16;;;;;;;7.82;5.00;;;28.50;55.20;;;;;;5102782;28;20073;-77
2022/08/07 02:38:43;;;;;;;5.43;4.50;;;28.70;55.10;;;;;;5104559;28;20442;-79
2022/08/07 02:41:11;;;;;;;5.45;4.45;;;28.80;54.70;;;;;;5096959;28;20030;-76
2022/08/07 02:43:39;;;;;;;6.22;4.25;;;29.00;54.60;;;;;;5102719;28;20047;-76
2022/08/07 02:46:07;;;;;;;4.85;4.20;;;29.00;54.50;;;;;;5109557;28;20458;-75
2022/08/07 02:48:33;;;;;;;5.25;4.00;;;28.90;54.30;;;;;;5111628;28;20077;-76
2022/08/07 02:51:05;;;;;;;7.00;4.50;;;28.80;54.50;;;;;;5107890;28;20035;-75
2022/08/07 02:53:34;;;;;;;5.53;4.40;;;28.90;54.60;;;;;;5099800;28;20023;-75
2022/08/07 02:56:02;;;;;;;6.03;4.00;;;29.10;54.50;;;;;;5105222;28;20054;-78
2022/08/07 02:58:30;;;;;;;5.82;4.50;;;29.30;54.10;;;;;;5103234;28;20050;-76
2022/08/07 03:00:58;;;;;;;5.15;4.45;;;29.30;54.00;;;;;;5102315;28;20130;-77
2022/08/07 03:03:27;;;;;;;5.60;4.15;;;29.30;53.90;;;;;;5094158;28;20024;-75
2022/08/07 03:05:55;;;;;;;6.28;3.72;;;29.40;54.10;;;;;;5100516;28;20420;-76
2022/08/07 03:08:21;;;;;;;4.43;3.63;;;29.40;54.00;;;;;;5099564;28;20118;-78
2022/08/07 03:10:48;;;;;;;5.55;3.42;;;29.40;53.80;;;;;;5097082;28;20039;-76
2022/08/07 03:13:15;;;;;;;5.95;3.78;;;29.40;53.50;;;;;;5094366;28;20078;-76
2022/08/07 03:15:42;;;;;;;5.05;3.55;;;29.30;54.00;;;;;;5106129;28;20027;-75
2022/08/07 03:18:08;;;;;;;5.78;3.95;;;29.40;53.70;;;;;;5114985;28;20386;-77
2022/08/07 03:20:35;;;;;;;6.18;4.00;;;29.50;53.50;;;;;;5104707;28;20476;-75
2022/08/07 03:23:02;;;;;;;4.75;3.70;;;29.20;53.70;;;;;;5096005;28;20063;-76
2022/08/07 03:25:31;;;;;;;4.45;3.65;;;29.20;53.80;;;;;;5108262;28;20023;-76
2022/08/07 03:27:59;;;;;;;4.60;3.70;;;29.40;54.00;;;;;;5093741;28;20462;-76
2022/08/07 03:30:25;;;;;;;4.80;3.55;;;29.50;53.80;;;;;;5097455;28;20036;-76
2022/08/07 03:32:53;;;;;;;5.28;3.70;;;29.60;53.70;;;;;;5104712;28;20114;-75
2022/08/07 03:35:24;;;;;;;5.07;3.42;;;29.60;53.70;;;;;;5110226;28;20414;-76
2022/08/07 03:37:55;;;;;;;4.43;3.50;;;29.70;53.60;;;;;;5101240;28;20039;-76
2022/08/07 03:40:21;;;;;;;5.50;3.50;;;29.80;53.40;;;;;;5106434;28;20082;-76
2022/08/07 03:42:47;;;;;;;6.63;3.30;;;29.50;53.50;;;;;;5097345;28;20075;-78
2022/08/07 03:45:14;;;;;;;4.82;3.53;;;29.30;54.00;;;;;;5094286;28;20073;-80
2022/08/07 03:47:40;;;;;;;7.20;4.03;;;29.20;54.50;;;;;;5097086;28;20124;-75
2022/08/07 03:50:06;;;;;;;4.97;4.15;;;29.10;55.00;;;;;;5108169;28;20089;-76
2022/08/07 03:52:32;;;;;;;5.30;3.90;;;29.10;55.10;;;;;;5096918;28;20023;-77
2022/08/07 03:54:59;;;;;;;4.70;4.07;;;29.20;55.10;;;;;;5109167;28;20028;-75
2022/08/07 03:57:28;;;;;;;5.35;4.50;;;29.40;55.00;;;;;;5097986;28;20031;-75
2022/08/07 03:59:54;;;;;;;7.10;6.00;;;29.60;54.60;;;;;;5106479;28;20019;-78
2022/08/07 04:02:21;;;;;;;5.22;4.07;;;29.70;54.40;;;;;;5096522;28;20103;-76
2022/08/07 04:04:48;;;;;;;6.25;4.55;;;29.80;54.20;;;;;;5074774;28;20077;-75
2022/08/07 04:07:17;;;;;;;5.80;4.35;;;29.80;54.10;;;;;;5111236;28;20031;-76
2022/08/07 04:09:45;;;;;;;5.30;4.47;;;29.90;54.20;;;;;;5108204;28;20434;-77
2022/08/07 04:12:12;;;;;;;5.30;4.03;;;29.70;54.30;;;;;;5098233;28;20016;-76
2022/08/07 04:14:39;;;;;;;6.32;4.50;;;29.00;54.10;;;;;;5111889;28;20054;-76
2022/08/07 04:17:05;;;;;;;5.15;4.18;;;29.00;54.20;;;;;;5108690;28;20020;-76
2022/08/07 04:19:31;;;;;;;6.30;4.50;;;29.10;54.10;;;;;;5093168;28;20028;-76
2022/08/07 04:21:57;;;;;;;5.00;3.85;;;29.20;54.30;;;;;;5092681;28;20046;-76
2022/08/07 04:24:23;;;;;;;6.25;4.20;;;29.40;54.20;;;;;;5095130;28;20378;-76
2022/08/07 04:26:49;;;;;;;4.95;3.80;;;29.40;54.30;;;;;;5114003;28;20083;-76
2022/08/07 04:29:14;;;;;;;7.72;4.18;;;29.30;54.00;;;;;;5100854;28;20024;-76
2022/08/07 04:31:40;;;;;;;5.95;3.53;;;28.60;55.10;;;;;;5095226;28;20065;-76
2022/08/07 04:34:07;;;;;;;4.70;3.80;;;28.50;55.70;;;;;;5112478;28;20051;-76
2022/08/07 04:36:33;;;;;;;6.03;3.40;;;28.90;55.30;;;;;;5112557;28;20027;-77
2022/08/07 04:39:01;;;;;;;5.07;3.22;;;28.90;53.90;;;;;;5112230;28;20497;-76
2022/08/07 04:41:26;;;;;;;4.07;3.15;;;28.50;54.80;;;;;;5109418;28;20417;-74
2022/08/07 04:43:54;;;;;;;4.32;3.17;;;28.80;54.80;;;;;;5110461;27;20034;-75
2022/08/07 04:46:44;;;;;;;4.00;2.60;;;29.20;54.30;;;;;;5113390;28;20166;-75
2022/08/07 04:49:14;;;;;;;4.28;3.30;;;29.50;53.80;;;;;;5117344;27;20058;-75
2022/08/07 04:51:53;;;;;;;4.18;2.90;;;29.80;53.60;;;;;;5113111;28;20043;-76
2022/08/07 04:54:29;;;;;;;4.13;2.90;;;29.70;53.20;;;;;;5113480;28;20105;-76
2022/08/07 04:57:06;;;;;;;3.80;2.60;;;29.60;53.60;;;;;;5109021;28;20078;-75
2022/08/07 04:59:42;;;;;;;3.38;2.30;;;29.90;53.30;;;;;;5091242;28;20050;-76
2022/08/07 05:02:34;;;;;;;2.90;1.73;;;30.10;51.60;;;;;;5087868;28;20075;-78
2022/08/07 05:05:17;;;;;;;4.10;1.83;;;30.10;49.40;;;;;;5091190;28;20047;-75
2022/08/07 05:07:46;;;;;;;3.92;1.80;;;29.10;50.60;;;;;;5091503;28;20449;-76
2022/08/07 05:10:29;;;;;;;3.40;1.80;;;28.90;50.70;;;;;;5091609;28;20035;-77
2022/08/07 05:13:02;;;;;;;3.70;1.90;;;29.10;50.50;;;;;;5091502;28;20534;-77
2022/08/07 05:15:38;;;;;;;3.60;1.90;;;29.30;50.10;;;;;;5091809;28;20020;-76
2022/08/07 05:18:27;;;;;;;3.13;1.60;;;29.30;49.40;;;;;;5088944;28;20123;-77
2022/08/07 05:20:56;;;;;;;4.30;1.88;;;29.40;49.70;;;;;;5091347;28;20020;-77
2022/08/07 05:23:27;;;;;;;4.07;2.10;;;29.40;49.70;;;;;;5073264;28;20032;-74
2022/08/07 05:25:54;;;;;;;2.95;1.80;;;29.50;50.10;;;;;;5095461;28;20016;-74
2022/08/07 05:28:21;;;;;;;2.90;1.50;;;29.50;50.00;;;;;;5095317;28;20024;-74
2022/08/07 05:30:47;;;;;;;2.97;1.70;;;29.70;49.40;;;;;;5087328;28;20429;-75
2022/08/07 05:33:15;;;;;;;4.07;1.90;;;29.90;49.70;;;;;;5083299;28;20023;-75
2022/08/07 05:35:42;;;;;;;4.93;1.77;;;30.00;49.20;;;;;;5095058;28;20032;-75
2022/08/07 05:38:09;;;;;;;3.75;1.60;;;30.30;49.60;;;;;;5101124;28;20012;-74
2022/08/07 05:40:37;;;;;;;4.30;1.65;;;30.40;49.40;;;;;;5116978;28;20023;-76
2022/08/07 05:43:03;;;;;;;5.88;1.80;;;30.40;48.80;;;;;;5096912;28;20019;-75
2022/08/07 05:45:29;;;;;;;6.95;1.80;;;29.70;50.00;;;;;;5095209;28;20043;-74
2022/08/07 05:47:56;;;;;;;3.05;1.70;;;28.80;51.00;;;;;;5092717;28;20097;-74
2022/08/07 05:50:23;;;;;;;3.35;1.95;;;28.70;51.40;;;;;;5100496;28;20072;-75
2022/08/07 05:52:48;;;;;;;3.38;1.80;;;29.00;50.80;;;;;;5115755;28;20108;-76
2022/08/07 05:55:14;;;;;;;4.00;1.65;;;29.50;50.50;;;;;;5098264;28;20085;-75
2022/08/07 05:57:41;;;;;;;4.28;2.00;;;29.80;50.30;;;;;;5086478;28;20039;-74
2022/08/07 06:00:08;;;;;;;4.22;1.58;;;29.80;49.50;;;;;;5096439;28;20020;-74
2022/08/07 06:02:35;;;;;;;15.68;2.00;;;30.10;49.90;;;;;;5096285;28;20027;-75
2022/08/07 06:05:08;;;;;;;2.63;1.50;;;30.30;49.10;;;;;;5102121;28;20408;-75
2022/08/07 06:07:35;;;;;;;3.10;1.60;;;30.20;49.70;;;;;;5105151;28;20023;-80
2022/08/07 06:10:01;;;;;;;2.63;1.70;;;30.40;48.70;;;;;;5098089;28;20031;-73
2022/08/07 06:12:28;;;;;;;3.33;1.80;;;30.40;49.00;;;;;;5098089;28;20023;-74
2022/08/07 06:14:54;;;;;;;6.03;2.15;;;30.40;48.90;;;;;;5116154;28;20065;-75
2022/08/07 06:17:21;;;;;;;3.28;1.60;;;30.20;48.70;;;;;;5116555;28;20019;-75
2022/08/07 06:19:48;;;;;;;3.00;1.73;;;30.20;48.90;;;;;;5116157;28;20026;-77
2022/08/07 06:22:15;;;;;;;2.80;1.70;;;30.10;49.50;;;;;;5116240;28;20356;-73
2022/08/07 06:24:41;;;;;;;4.60;1.70;;;30.20;48.70;;;;;;5114596;28;20401;-75
2022/08/07 06:27:10;;;;;;;4.40;1.60;;;30.30;48.80;;;;;;5095894;28;20027;-73
2022/08/07 06:29:35;;;;;;;2.67;1.60;;;30.50;48.40;;;;;;5095382;28;20028;-75
2022/08/07 06:32:01;;;;;;;2.58;1.60;;;30.70;48.10;;;;;;5095938;28;20027;-77
2022/08/07 06:34:27;;;;;;;3.05;1.70;;;30.70;47.60;;;;;;5095749;28;20028;-75
2022/08/07 06:36:53;;;;;;;3.15;1.67;;;30.60;47.30;;;;;;5102728;28;20020;-75
2022/08/07 06:39:20;;;;;;;3.55;1.83;;;30.60;47.50;;;;;;5116008;28;20081;-74
2022/08/07 06:41:55;;;;;;;3.35;1.70;;;30.70;47.80;;;;;;5114918;28;20038;-75
2022/08/07 06:44:22;;;;;;;4.82;1.90;;;30.60;47.80;;;;;;5097337;28;20045;-74
2022/08/07 06:46:48;;;;;;;3.55;1.67;;;30.50;47.60;;;;;;5115689;28;20050;-76
2022/08/07 06:49:14;;;;;;;4.53;1.85;;;30.50;48.00;;;;;;5114791;28;20039;-74
2022/08/07 06:51:45;;;;;;;4.30;1.80;;;30.50;47.50;;;;;;5113739;28;20130;-72
2022/08/07 06:54:11;;;;;;;;;;;30.60;48.20;;;;;;5114795;28;20020;-73
2022/08/07 06:56:42;;;;;;;3.92;1.70;;;30.70;47.70;;;;;;5114353;28;19950;-72
2022/08/07 06:59:14;;;;;;;4.03;1.83;;;31.00;47.90;;;;;;5110047;28;20021;-72
2022/08/07 07:01:45;;;;;;;3.40;1.63;;;31.40;47.80;;;;;;5115624;28;20393;-76
2022/08/07 07:04:12;;;;;;;7.40;1.60;;;31.50;46.90;;;;;;5115630;28;20038;-77
2022/08/07 07:06:38;;;;;;;2.95;1.80;;;31.50;46.70;;;;;;5115516;28;20035;-76
2022/08/07 07:09:21;;;;;;;3.95;1.60;;;31.30;46.50;;;;;;5115883;28;20419;-72
2022/08/07 07:12:22;;;;;;;2.60;1.70;;;31.20;46.30;;;;;;5114857;28;20028;-72
2022/08/07 07:15:04;;;;;;;3.92;1.60;;;31.60;47.20;;;;;;5110824;28;20045;-74
2022/08/07 07:17:51;;;;;;;4.13;1.75;;;31.80;45.60;;;;;;5113135;28;20019;-73
2022/08/07 07:20:24;;;;;;;4.13;1.63;;;31.80;45.90;;;;;;5111545;27;20019;-76
2022/08/07 07:22:51;;;;;;;5.43;1.88;;;31.00;47.00;;;;;;5095600;28;20123;-77
2022/08/07 07:25:18;;;;;;;2.65;1.60;;;31.10;46.70;;;;;;4393193;27;10000718;-75
2022/08/07 07:27:53;;;;;;;3.05;1.60;;;31.40;45.80;;;;;;5090481;28;20047;-75
2022/08/07 07:30:28;;;;;;;3.33;1.60;;;31.70;45.70;;;;;;5092866;28;20535;-75
2022/08/07 07:32:55;;;;;;;3.45;1.60;;;31.70;45.60;;;;;;5093087;28;20020;-79
2022/08/07 07:35:22;;;;;;;3.00;1.60;;;31.80;45.30;;;;;;5090201;28;20032;-74
2022/08/07 07:37:50;;;;;;;3.78;1.70;;;31.70;45.80;;;;;;5090928;28;20420;-75
2022/08/07 07:40:18;;;;;;;3.63;1.70;;;31.60;45.70;;;;;;5093024;28;20051;-77
2022/08/07 07:42:50;;;;;;;3.17;1.58;;;31.60;45.60;;;;;;5102298;28;20057;-74
2022/08/07 07:45:18;;;;;;;4.53;1.70;;;31.60;45.30;;;;;;5098460;28;20088;-75
2022/08/07 07:47:45;;;;;;;2.72;1.55;;;31.40;45.30;;;;;;5110839;28;20034;-74
2022/08/07 07:50:14;;;;;;;2.80;1.50;;;31.30;45.60;;;;;;5101359;28;20036;-78
2022/08/07 07:52:44;;;;;;;5.47;1.60;;;31.20;45.70;;;;;;5108424;28;20091;-78
2022/08/07 07:55:12;;;;;;;3.75;1.65;;;31.40;46.10;;;;;;5091658;28;20039;-76
2022/08/07 07:57:39;;;;;;;3.55;1.70;;;31.60;46.00;;;;;;5091702;28;20482;-74
2022/08/07 08:00:07;;;;;;;2.90;1.50;;;31.50;45.50;;;;;;5089896;28;20034;-77
2022/08/07 08:02:34;;;;;;;3.80;1.60;;;31.20;46.30;;;;;;5108900;28;20063;-74
2022/08/07 08:05:03;;;;;;;2.92;1.67;;;31.10;45.80;;;;;;5110753;28;20489;-76
2022/08/07 08:07:32;;;;;;;5.93;1.70;;;31.00;45.90;;;;;;5105820;28;20016;-83
2022/08/07 08:10:00;;;;;;;3.38;1.58;;;30.90;45.90;;;;;;5090626;28;20051;-72
2022/08/07 08:12:26;;;;;;;4.00;1.50;;;31.00;46.50;;;;;;5094148;28;20024;-74
2022/08/07 08:14:51;;;;;;;4.28;1.75;;;31.10;46.60;;;;;;5092699;28;20018;-74
2022/08/07 08:17:22;;;;;;;3.50;1.70;;;30.90;46.00;;;;;;5091613;28;20077;-82
2022/08/07 08:19:49;;;;;;;;;;;31.00;46.50;;;;;;5091872;28;20059;-78
2022/08/07 08:27:51;;;;;;;3.45;1.60;;;30.90;46.10;;;;;;5095427;28;20031;-75
2022/08/07 08:30:18;;;;;;;3.60;1.67;;;31.00;46.60;;;;;;5090496;28;20028;-75
2022/08/07 08:32:52;;;;;;;3.00;1.60;;;31.20;45.90;;;;;;5089984;28;20028;-76
2022/08/07 08:35:22;;;;;;;3.20;1.63;;;31.50;46.40;;;;;;5075147;28;20446;-73
2022/08/07 08:37:50;;;;;;;4.32;1.60;;;31.70;46.40;;;;;;5090203;28;20028;-77
2022/08/07 08:40:29;;;;;;;5.28;1.70;;;31.70;45.40;;;;;;5090575;28;20043;-77
2022/08/07 08:43:14;;;;;;;3.53;1.77;;;31.40;45.60;;;;;;5095537;28;20374;-74
2022/08/07 08:45:54;;;;;;;2.80;1.55;;;31.50;46.20;;;;;;5094120;28;20060;-77
2022/08/07 08:48:39;;;;;;;3.67;1.60;;;32.10;45.90;;;;;;5091398;28;20128;-81
2022/08/07 08:51:09;;;;;;;4.88;1.88;;;32.30;45.80;;;;;;5096635;28;20355;-76
2022/08/07 08:53:43;;;;;;;3.95;1.48;;;32.30;45.50;;;;;;5106730;28;20019;-74
2022/08/07 08:56:18;;;;;;;2.50;1.48;;;32.50;46.00;;;;;;5109108;28;20145;-83
2022/08/07 08:58:47;;;;;;;5.85;1.65;;;32.60;46.00;;;;;;5104581;28;20803;-72
2022/08/07 09:01:37;;;;;;;5.63;1.50;;;32.70;45.40;;;;;;5108060;28;20031;-79
2022/08/07 09:04:27;;;;;;;5.90;1.50;;;32.80;44.80;;;;;;5110307;28;20420;-79
2022/08/07 09:07:07;;;;;;;3.10;1.80;;;32.90;45.90;;;;;;5091644;28;20396;-76
2022/08/07 09:10:24;;;;;;;4.70;2.28;;;33.10;44.60;;;;;;5110194;28;20016;-79
2022/08/07 09:13:08;;;;;;;2.90;1.80;;;32.70;45.30;;;;;;5008617;28;20413;-75
2022/08/07 09:15:50;;;;;;;2.63;1.60;;;32.80;45.30;;;;;;5006802;28;20187;-76
2022/08/07 09:18:52;;;;;;;2.67;1.60;;;33.20;46.00;;;;;;5005751;28;20034;-71
2022/08/07 09:21:30;;;;;;;4.35;1.70;;;33.70;45.10;;;;;;5017915;28;20089;-86
2022/08/07 09:24:23;;;;;;;3.50;1.80;;;33.60;45.50;;;;;;4990084;28;20080;-85
2022/08/07 09:26:54;;;;;;;4.50;1.80;;;33.30;45.80;;;;;;5004847;28;20517;-73
2022/08/07 09:29:36;;;;;;;4.15;1.83;;;33.50;44.70;;;;;;5000649;28;20069;-80
2022/08/07 09:32:24;;;;;;;4.13;1.80;;;33.80;44.40;;;;;;5000428;28;20089;-76
2022/08/07 09:35:27;;;;;;;3.22;1.80;;;33.90;45.40;;;;;;5012970;28;20042;-78
2022/08/07 09:38:10;;;;;;;6.40;2.30;;;34.10;44.60;;;;;;5001408;28;20456;-78
2022/08/07 09:41:07;;;;;;;3.40;1.80;;;33.80;44.40;;;;;;5010668;28;20029;-77
2022/08/07 09:43:53;;;;;;;3.97;2.03;;;33.40;44.40;;;;;;5006385;28;20042;-77
2022/08/07 09:46:42;;;;;;;3.33;2.05;;;33.00;44.70;;;;;;5006451;28;20523;-76
2022/08/07 09:49:43;;;;;;;6.10;2.00;;;33.00;45.40;;;;;;5074438;28;20145;-77
2022/08/07 09:52:30;;;;;;;6.07;1.95;;;33.40;46.70;;;;;;5094908;28;20100;-77
2022/08/07 09:55:16;;;;;;;4.43;1.70;;;33.30;45.80;;;;;;5094781;28;20047;-78
2022/08/07 09:58:06;;;;;;;5.80;1.80;;;33.30;45.40;;;;;;5094850;28;20035;-77
2022/08/07 10:01:16;;;;;;;5.53;3.60;;;33.00;46.70;;;;;;5093485;28;20019;-77
2022/08/07 10:04:04;;;;;;;7.88;2.05;;;33.30;46.50;;;;;;5076512;28;20040;-76
2022/08/07 10:06:45;;;;;;;4.47;2.00;;;34.10;45.30;;;;;;5092137;28;20025;-76
2022/08/07 10:09:38;;;;;;;4.20;1.73;;;34.50;45.60;;;;;;5094382;28;20047;-78
2022/08/07 10:12:33;;;;;;;3.90;1.70;;;35.10;44.60;;;;;;5099748;28;20071;-78
2022/08/07 10:15:14;;;;;;;3.50;1.65;;;35.30;43.80;;;;;;5108285;28;20022;-78
2022/08/07 10:17:52;;;;;;;3.00;1.77;;;35.10;44.50;;;;;;5116244;28;20089;-82
2022/08/07 10:20:35;;;;;;;2.85;1.75;;;34.90;45.20;;;;;;5099727;28;20020;-75
2022/08/07 10:23:26;;;;;;;3.45;2.00;;;34.80;44.60;;;;;;5116290;27;21374;-78
2022/08/07 10:26:03;;;;;;;2.88;1.80;;;34.90;44.70;;;;;;5114957;28;20020;-77
2022/08/07 10:28:35;;;;;;;3.28;1.75;;;35.10;45.70;;;;;;5114277;28;20022;-77
2022/08/07 10:31:22;;;;;;;4.30;1.98;;;35.40;44.00;;;;;;5096802;28;20554;-74
2022/08/07 10:33:47;;;;;;;3.50;1.70;;;35.60;44.70;;;;;;5112547;28;20028;-80
2022/08/07 10:36:32;;;;;;;3.53;2.00;;;35.60;44.00;;;;;;5114130;28;20054;-79
2022/08/07 10:39:39;;;;;;;3.38;1.73;;;35.50;43.80;;;;;;5115488;28;20044;-77
2022/08/07 10:42:34;;;;;;;2.70;1.70;;;35.70;43.80;;;;;;5100422;28;20106;-78
2022/08/07 10:45:35;;;;;;;2.85;1.70;;;35.80;44.40;;;;;;5112345;28;20055;-77
2022/08/07 10:48:19;;;;;;;2.70;1.80;;;35.60;44.40;;;;;;5115134;28;20020;-76
2022/08/07 10:50:51;;;;;;;3.65;1.80;;;35.70;45.30;;;;;;5114991;28;20061;-74
2022/08/07 10:53:26;;;;;;;3.10;1.92;;;35.80;44.90;;;;;;5114970;28;20016;-77
2022/08/07 10:56:20;;;;;;;5.72;2.00;;;35.90;44.50;;;;;;5115112;28;20024;-78
2022/08/07 10:58:46;;;;;;;3.83;2.20;;;35.50;43.60;;;;;;5077360;28;20024;-76
2022/08/07 11:01:18;;;;;;;3.15;2.20;;;35.30;44.30;;;;;;5087400;28;20588;-79
2022/08/07 11:03:55;;;;;;;3.67;1.90;;;35.70;44.40;;;;;;5102182;28;20027;-78
2022/08/07 11:06:40;;;;;;;4.78;2.13;;;35.70;45.30;;;;;;5114542;28;20433;-79
2022/08/07 11:09:17;;;;;;;3.28;2.28;;;35.80;44.40;;;;;;5094992;28;20020;-80
2022/08/07 11:12:17;;;;;;;3.80;2.28;;;35.60;44.50;;;;;;5094990;28;20047;-79
2022/08/07 11:14:52;;;;;;;3.53;2.10;;;35.30;45.50;;;;;;4994675;28;20149;-78
2022/08/07 11:17:28;;;;;;;3.75;2.20;;;35.30;44.50;;;;;;5027099;28;20033;-77
2022/08/07 11:20:18;;;;;;;3.00;2.05;;;35.00;44.70;;;;;;5027781;28;20133;-80
2022/08/07 11:22:52;;;;;;;;;;;34.50;45.20;;;;;;4954434;28;20427;-78
2022/08/07 11:25:30;;;;;;;3.25;2.22;;;35.00;45.50;;;;;;4954057;29;20017;-78
2022/08/07 11:28:37;;;;;;;3.45;2.08;;;35.50;44.60;;;;;;4937108;29;20063;-78
2022/08/07 11:31:30;;;;;;;7.40;2.30;;;35.80;44.40;;;;;;4966398;28;20047;-76
2022/08/07 11:34:18;;;;;;;4.00;2.40;;;35.90;44.70;;;;;;4951676;28;20118;-87
2022/08/07 11:36:52;;;;;;;4.78;2.35;;;35.30;44.90;;;;;;4954060;29;20047;-80
2022/08/07 11:39:47;;;;;;;5.53;2.58;;;34.90;46.20;;;;;;4953854;29;20027;-76
2022/08/07 11:42:57;;;;;;;3.70;2.38;;;34.90;45.10;;;;;;4932752;29;20040;-76
2022/08/07 11:45:44;;;;;;;4.53;2.38;;;35.30;44.90;;;;;;4934091;29;20106;-79
2022/08/07 11:48:39;;;;;;;4.40;2.40;;;34.90;45.60;;;;;;4247482;29;10000653;-76
2022/08/07 11:51:26;;;;;;;4.97;2.40;;;35.10;45.50;;;;;;4992689;28;20050;-78
2022/08/07 11:54:21;;;;;;;3.22;2.38;;;35.40;45.80;;;;;;4994071;28;20096;-79
2022/08/07 11:57:19;;;;;;;4.40;2.60;;;35.70;45.10;;;;;;5010109;28;20054;-76
2022/08/07 12:00:11;;;;;;;5.88;2.42;;;35.80;44.90;;;;;;5030471;28;20030;-78
2022/08/07 12:03:00;;;;;;;3.30;2.30;;;35.90;44.90;;;;;;5049576;28;20029;-79
2022/08/07 12:05:49;;;;;;;3.10;2.20;;;36.30;45.50;;;;;;5049527;28;20040;-77
2022/08/07 12:08:24;;;;;;;3.60;2.38;;;36.60;44.90;;;;;;5050217;28;20037;-76
2022/08/07 12:11:12;;;;;;;4.40;2.30;;;36.60;44.70;;;;;;5051956;28;20040;-78
2022/08/07 12:14:23;;;;;;;4.13;2.20;;;36.80;44.30;;;;;;5051563;28;20070;-79
2022/08/07 12:17:04;;;;;;;7.00;2.22;;;36.90;45.80;;;;;;4992280;28;20022;-79
2022/08/07 12:20:01;;;;;;;4.47;2.42;;;36.80;43.80;;;;;;5042843;28;20033;-77
2022/08/07 12:22:54;;;;;;;4.43;2.35;;;36.60;44.80;;;;;;5051254;28;20091;-77
2022/08/07 12:25:53;;;;;;;3.30;2.30;;;36.80;45.00;;;;;;5051227;28;20450;-77
2022/08/07 12:28:56;;;;;;;4.05;2.30;;;37.00;45.10;;;;;;5049311;28;20510;-80
2022/08/07 12:31:42;;;;;;;4.15;2.60;;;37.10;44.70;;;;;;5051666;28;20037;-80
2022/08/07 12:34:11;;;;;;;3.22;2.20;;;37.30;44.50;;;;;;5050594;28;20029;-80
2022/08/07 12:36:37;;;;;;;3.47;2.17;;;37.30;44.70;;;;;;5051676;28;20045;-79
2022/08/07 12:39:07;;;;;;;3.85;2.30;;;37.30;44.30;;;;;;5034584;28;20534;-89
2022/08/07 12:41:36;;;;;;;3.65;2.50;;;37.20;44.20;;;;;;5051125;28;20539;-78
2022/08/07 12:44:06;;;;;;;7.97;2.70;;;36.90;44.60;;;;;;5051502;28;20040;-78
2022/08/07 12:46:53;;;;;;;3.28;2.20;;;37.10;44.50;;;;;;5058184;28;20025;-78
2022/08/07 12:49:50;;;;;;;5.05;2.25;;;37.00;43.40;;;;;;5113417;28;20051;-75
2022/08/07 12:52:24;;;;;;;15.38;3.80;;;36.80;44.00;;;;;;5114020;28;20390;-79
2022/08/07 12:55:08;;;;;;;3.72;2.53;;;36.60;44.00;;;;;;5113484;28;20382;-78
2022/08/07 12:57:37;;;;;;;6.30;2.35;;;36.60;43.80;;;;;;5113805;28;20385;-75
2022/08/07 13:00:06;;;;;;;3.58;2.10;;;36.90;44.20;;;;;;5113577;28;20034;-78
2022/08/07 13:02:51;;;;;;;5.25;2.42;;;36.90;44.00;;;;;;5113631;28;20042;-82
2022/08/07 13:05:23;;;;;;;3.33;2.30;;;37.00;43.90;;;;;;5113657;28;20028;-77
2022/08/07 13:08:23;;;;;;;3.40;2.33;;;36.90;44.20;;;;;;5113387;28;20050;-78
2022/08/07 13:11:00;;;;;;;3.78;2.30;;;36.70;44.10;;;;;;5113732;28;20073;-79
2022/08/07 13:13:35;;;;;;;4.15;2.60;;;36.40;43.80;;;;;;5113352;28;20540;-79
2022/08/07 13:16:48;;;;;;;3.53;2.40;;;36.30;44.20;;;;;;5113300;28;20024;-76
2022/08/07 13:19:38;;;;;;;4.30;2.40;;;36.10;45.10;;;;;;5010907;28;20030;-77
2022/08/07 13:22:13;;;;;;;4.45;2.35;;;36.30;44.30;;;;;;5011152;28;20042;-76
2022/08/07 13:24:52;;;;;;;4.18;2.40;;;36.50;44.50;;;;;;5011289;28;20037;-80
2022/08/07 13:27:30;;;;;;;4.25;2.65;;;36.50;44.10;;;;;;5010894;28;20022;-76
2022/08/07 13:30:04;;;;;;;3.00;2.30;;;36.60;44.20;;;;;;5011309;28;20033;-78